Time;durP1;ratioP1;P1;durP2;ratioP2;P2;SDS_P1;SDS_P2;PMS_P1;PMS_P2;Temp;Humidity;BMP_temperature;BMP_pressure;BME280_temperature;BME280_humidity;BME280_pressure;Samples;Min_cycle;Max_cycle;Signal;HPM_P1;HPM_P2
2022/06/30 00:00:35;;;;;;;15.60;11.32;;;20.20;99.90;;;;;;5093488;28;20039;-67
2022/06/30 00:03:01;;;;;;;12.85;11.55;;;20.20;99.90;;;;;;5093646;28;20024;-67
2022/06/30 00:05:27;;;;;;;12.05;10.85;;;20.20;99.90;;;;;;5091932;28;20051;-67
2022/06/30 00:07:53;;;;;;;12.05;10.75;;;20.30;99.90;;;;;;5092158;28;20101;-67
2022/06/30 00:10:18;;;;;;;12.90;10.85;;;20.30;99.90;;;;;;5092095;28;20024;-67
2022/06/30 00:12:44;;;;;;;13.07;10.35;;;20.30;99.90;;;;;;5092145;28;20023;-67
2022/06/30 00:15:10;;;;;;;12.30;10.57;;;20.30;99.90;;;;;;5093359;28;20012;-67
2022/06/30 00:17:36;;;;;;;11.90;10.68;;;20.20;99.90;;;;;;5093305;28;20020;-67
2022/06/30 00:20:02;;;;;;;12.13;10.82;;;20.20;99.90;;;;;;5093342;28;20420;-68
2022/06/30 00:22:27;;;;;;;14.30;11.40;;;20.20;99.90;;;;;;5093305;28;20028;-67
2022/06/30 00:24:53;;;;;;;14.23;11.27;;;20.20;99.90;;;;;;5093168;28;20035;-67
2022/06/30 00:27:19;;;;;;;12.23;10.88;;;20.20;99.90;;;;;;5093116;28;20032;-68
2022/06/30 00:29:44;;;;;;;12.32;11.13;;;20.20;99.90;;;;;;5093240;28;20389;-67
2022/06/30 00:32:10;;;;;;;12.50;10.98;;;20.20;99.90;;;;;;5093389;28;20027;-67
2022/06/30 00:34:35;;;;;;;12.82;11.05;;;20.20;99.90;;;;;;5093156;28;20055;-67
2022/06/30 00:37:01;;;;;;;14.38;11.00;;;20.20;99.90;;;;;;5091820;28;20398;-67
2022/06/30 00:39:28;;;;;;;12.18;10.88;;;20.20;99.90;;;;;;5093190;28;20433;-67
2022/06/30 00:41:54;;;;;;;13.13;11.15;;;20.20;99.90;;;;;;5092985;28;20119;-68
2022/06/30 00:44:20;;;;;;;11.65;10.25;;;20.20;99.90;;;;;;5092968;28;20031;-67
2022/06/30 00:46:45;;;;;;;12.48;10.90;;;20.10;99.90;;;;;;5092940;28;20020;-67
2022/06/30 00:49:11;;;;;;;11.50;10.40;;;20.10;99.90;;;;;;5092066;28;20020;-67
2022/06/30 00:51:37;;;;;;;12.85;10.80;;;20.00;99.90;;;;;;5093037;28;20020;-67
2022/06/30 00:54:04;;;;;;;13.50;10.85;;;20.10;99.90;;;;;;5091682;28;20024;-67
2022/06/30 00:56:32;;;;;;;13.98;10.80;;;20.10;99.90;;;;;;5092928;28;20056;-67
2022/06/30 00:59:02;;;;;;;11.52;10.27;;;20.00;99.90;;;;;;5093050;28;20554;-67
2022/06/30 01:01:29;;;;;;;13.55;10.73;;;20.00;99.90;;;;;;5093196;28;20584;-68
2022/06/30 01:03:55;;;;;;;12.10;10.85;;;19.90;99.90;;;;;;5092934;28;20104;-67
2022/06/30 01:06:22;;;;;;;12.38;11.10;;;19.90;99.90;;;;;;5096482;28;20044;-67
2022/06/30 01:08:49;;;;;;;12.68;11.40;;;19.80;99.90;;;;;;5096702;28;20081;-67
2022/06/30 01:14:01;;;;;;;12.25;11.02;;;19.70;99.90;;;;;;5081254;28;20028;-67
2022/06/30 01:16:27;;;;;;;13.70;11.80;;;19.60;99.90;;;;;;5096583;28;20024;-66
2022/06/30 01:18:53;;;;;;;12.60;11.30;;;19.50;99.90;;;;;;5096739;28;20051;-67
2022/06/30 01:21:18;;;;;;;12.68;11.40;;;19.50;99.90;;;;;;5096440;28;20020;-67
2022/06/30 01:23:44;;;;;;;13.50;12.10;;;19.50;99.90;;;;;;5096635;28;20031;-67
2022/06/30 01:26:10;;;;;;;13.30;12.00;;;19.70;99.90;;;;;;5095098;28;20398;-66
2022/06/30 01:28:36;;;;;;;13.88;12.48;;;19.60;99.90;;;;;;5096328;28;20031;-67
2022/06/30 01:31:01;;;;;;;12.77;11.52;;;19.70;99.90;;;;;;5096510;28;20031;-67
2022/06/30 01:33:27;;;;;;;13.27;11.88;;;19.60;99.90;;;;;;5096355;28;20050;-67
2022/06/30 01:35:55;;;;;;;13.50;12.05;;;19.70;99.90;;;;;;5096438;28;20028;-67
2022/06/30 01:38:21;;;;;;;11.90;10.80;;;19.60;99.90;;;;;;5096152;28;20418;-67
2022/06/30 01:40:46;;;;;;;13.82;11.52;;;19.60;99.90;;;;;;5096309;28;20024;-67
2022/06/30 01:43:13;;;;;;;13.23;11.82;;;19.70;99.90;;;;;;5096257;28;20389;-67
2022/06/30 01:45:40;;;;;;;13.45;11.82;;;19.60;99.90;;;;;;5095898;28;20027;-66
2022/06/30 01:48:08;;;;;;;12.52;11.23;;;;;;;;;;5094989;28;20024;-67
2022/06/30 01:50:34;;;;;;;13.23;11.88;;;;;;;;;;5096035;28;20140;-66
2022/06/30 01:53:01;;;;;;;14.15;12.75;;;;;;;;;;5096086;28;20027;-67
2022/06/30 01:55:27;;;;;;;13.10;11.45;;;;;;;;;;5094576;28;20397;-66
2022/06/30 01:57:53;;;;;;;13.50;12.20;;;;;;;;;;5095654;28;20124;-67
2022/06/30 02:00:21;;;;;;;14.30;12.38;;;;;;;;;;5095648;28;20059;-67
2022/06/30 02:02:48;;;;;;;16.80;13.40;;;;;;;;;;5095603;28;20398;-67
2022/06/30 02:05:14;;;;;;;14.88;13.23;;;;;;;;;;5095447;28;20119;-66
2022/06/30 02:07:41;;;;;;;14.23;12.73;;;;;;;;;;5095509;28;20032;-67
2022/06/30 02:10:08;;;;;;;13.75;12.38;;;;;;;;;;5095476;28;20095;-67
2022/06/30 02:12:51;;;;;;;13.77;12.45;;;;;;;;;;5095723;28;20020;-67
2022/06/30 02:15:22;;;;;;;15.38;13.45;;;;;;;;;;5095269;28;20020;-67
2022/06/30 02:17:49;;;;;;;15.25;13.10;;;;;;;;;;5095374;28;20470;-67
2022/06/30 02:20:20;;;;;;;15.00;12.68;;;;;;;;;;5095289;28;20395;-67
2022/06/30 02:22:47;;;;;;;14.35;12.60;;;;;;;;;;5095494;28;20032;-67
2022/06/30 02:25:13;;;;;;;17.55;13.05;;;;;;;;;;5095213;28;20039;-66
2022/06/30 02:27:39;;;;;;;13.18;11.82;;;;;;;;;;5095042;28;20032;-66
2022/06/30 02:30:06;;;;;;;14.60;13.20;;;;;;;;;;5095167;28;20023;-66
2022/06/30 02:32:32;;;;;;;13.98;12.48;;;;;;;;;;5093969;28;20044;-66
2022/06/30 02:34:58;;;;;;;13.25;11.90;;;;;;;;;;5095019;28;20065;-66
2022/06/30 02:37:24;;;;;;;14.65;13.25;;;;;;;;;;5095213;28;20030;-67
2022/06/30 02:39:50;;;;;;;14.73;13.30;;;;;;;;;;5095195;28;20032;-67
2022/06/30 02:42:16;;;;;;;13.68;12.25;;;;;;;;;;5094865;28;20390;-66
2022/06/30 02:44:42;;;;;;;14.73;13.35;;;;;;;;;;5095038;28;20466;-67
2022/06/30 02:47:08;;;;;;;14.05;12.63;;;;;;;;;;5094708;28;20034;-66
2022/06/30 02:49:36;;;;;;;14.60;13.05;;;;;;;;;;5095028;28;20459;-66
2022/06/30 02:52:02;;;;;;;17.17;14.63;;;;;;;;;;5094606;28;20478;-66
2022/06/30 02:54:28;;;;;;;15.45;13.57;;;;;;;;;;5094617;28;20052;-66
2022/06/30 02:56:53;;;;;;;15.48;13.88;;;;;;;;;;5094539;28;20032;-66
2022/06/30 02:59:19;;;;;;;18.05;15.02;;;;;;;;;;5093235;28;20096;-66
2022/06/30 03:01:45;;;;;;;15.68;14.18;;;;;;;;;;5094459;28;20020;-66
2022/06/30 03:04:12;;;;;;;16.55;14.82;;;;;;;;;;5094231;28;20493;-67
2022/06/30 03:06:37;;;;;;;15.50;13.93;;;;;;;;;;5094533;28;20020;-67
2022/06/30 03:09:04;;;;;;;14.82;13.20;;;;;;;;;;5094371;28;20024;-66
2022/06/30 03:11:30;;;;;;;18.05;14.13;;;;;;;;;;5094555;28;20466;-66
2022/06/30 03:13:56;;;;;;;15.88;14.25;;;;;;;;;;5094226;28;20082;-67
2022/06/30 03:16:22;;;;;;;17.00;14.93;;;;;;;;;;5094210;28;20032;-66
2022/06/30 03:18:48;;;;;;;15.52;13.75;;;;;;;;;;5094159;28;20481;-66
2022/06/30 03:21:14;;;;;;;16.77;14.88;;;;;;;;;;5094346;28;20114;-67
2022/06/30 03:23:40;;;;;;;18.23;14.88;;;;;;;;;;5094093;28;20217;-66
2022/06/30 03:26:06;;;;;;;17.55;15.68;;;;;;;;;;5092756;28;20024;-66
2022/06/30 03:28:33;;;;;;;16.05;14.45;;;;;;;;;;5093249;28;20028;-66
2022/06/30 03:30:59;;;;;;;16.13;14.55;;;;;;;;;;5093962;28;20024;-68
2022/06/30 03:33:25;;;;;;;17.65;15.18;;;;;;;;;;5093883;28;20501;-68
2022/06/30 03:35:52;;;;;;;17.75;15.27;;;;;;;;;;5094119;28;20107;-67
2022/06/30 03:38:18;;;;;;;17.33;15.63;;;;;;;;;;5092546;28;20439;-67
2022/06/30 03:40:44;;;;;;;16.13;14.52;;;;;;;;;;5093777;28;20059;-67
2022/06/30 03:43:10;;;;;;;16.83;14.75;;;;;;;;;;5093751;28;20063;-67
2022/06/30 03:45:36;;;;;;;15.63;13.43;;;;;;;;;;5093734;28;20394;-67
2022/06/30 03:48:04;;;;;;;14.70;13.20;;;;;;;;;;5093706;28;20115;-67
2022/06/30 03:50:31;;;;;;;14.50;13.00;;;;;;;;;;5093673;28;20480;-67
2022/06/30 03:52:57;;;;;;;15.40;13.77;;;;;;;;;;5093817;28;20020;-67
2022/06/30 03:55:23;;;;;;;16.77;14.25;;;;;;;;;;5093506;28;20069;-67
2022/06/30 03:57:50;;;;;;;16.45;14.77;;;;;;;;;;5093510;28;20028;-67
2022/06/30 04:00:16;;;;;;;16.58;14.77;;;;;;;;;;5075594;28;20058;-67
2022/06/30 04:02:42;;;;;;;16.50;14.93;;;;;;;;;;5093467;28;20024;-67
2022/06/30 04:05:08;;;;;;;19.60;16.15;;;;;;;;;;5093380;28;20502;-66
2022/06/30 04:07:42;;;;;;;18.05;15.13;;;;;;;;;;5093368;28;20035;-67
2022/06/30 04:10:09;;;;;;;18.92;15.35;;;;;;;;;;5093465;28;20027;-66
2022/06/30 04:12:35;;;;;;;18.85;16.80;;;;;;;;;;5093398;28;20017;-66
2022/06/30 04:15:01;;;;;;;16.23;14.52;;;;;;;;;;5093354;28;20393;-66
2022/06/30 04:17:27;;;;;;;16.15;14.45;;;;;;;;;;5093228;28;20027;-66
2022/06/30 04:19:53;;;;;;;15.20;13.70;;;;;;;;;;5093252;28;20478;-66
2022/06/30 04:22:19;;;;;;;17.38;15.57;;;;;;;;;;5093222;28;20041;-67
2022/06/30 04:24:45;;;;;;;18.42;16.42;;;;;;;;;;5093243;28;20156;-68
2022/06/30 04:27:12;;;;;;;15.45;13.95;;;;;;;;;;5091758;28;20036;-67
2022/06/30 04:29:38;;;;;;;17.15;15.05;;;;;;;;;;5093233;28;20019;-68
2022/06/30 04:34:50;;;;;;;18.17;16.23;;;;;;;;;;5092957;28;20071;-68
2022/06/30 04:37:16;;;;;;;20.23;15.43;;;;;;;;;;5093169;28;20028;-67
2022/06/30 04:39:42;;;;;;;14.60;13.10;;;;;;;;;;5096310;28;20139;-68
2022/06/30 04:42:08;;;;;;;13.02;11.25;;;20.50;99.90;;;;;;5097461;28;20040;-66
2022/06/30 04:44:33;;;;;;;14.40;11.77;;;21.50;99.90;;;;;;5097124;28;20060;-67
2022/06/30 04:47:02;;;;;;;11.85;10.65;;;;;;;;;;5097222;28;20039;-66
2022/06/30 04:49:27;;;;;;;11.98;10.15;;;25.10;99.90;;;;;;5097016;28;20547;-67
2022/06/30 04:51:53;;;;;;;10.20;9.05;;;25.30;99.90;;;;;;5095734;28;20106;-66
2022/06/30 04:54:19;;;;;;;10.55;9.43;;;26.30;99.90;;;;;;5096888;28;20020;-66
2022/06/30 04:56:44;;;;;;;13.43;8.90;;;26.60;99.90;;;;;;5096909;28;20024;-67
2022/06/30 04:59:10;;;;;;;11.52;9.52;;;26.80;99.90;;;;;;5095785;28;20032;-66
2022/06/30 05:01:35;;;;;;;10.40;9.23;;;26.80;99.90;;;;;;5096867;28;20038;-66
2022/06/30 05:04:01;;;;;;;9.20;8.30;;;27.10;99.90;;;;;;5096866;28;20103;-66
2022/06/30 05:06:26;;;;;;;10.20;9.00;;;26.90;99.90;;;;;;5096665;28;20028;-66
2022/06/30 05:08:52;;;;;;;11.85;8.00;;;27.40;99.90;;;;;;5096726;28;20470;-66
2022/06/30 05:11:20;;;;;;;10.25;8.40;;;28.10;99.90;;;;;;5078570;28;20020;-69
2022/06/30 05:13:46;;;;;;;11.32;7.93;;;28.50;99.90;;;;;;5096542;28;20020;-67
2022/06/30 05:16:12;;;;;;;8.50;7.60;;;28.40;99.90;;;;;;5096758;28;20077;-67
2022/06/30 05:18:37;;;;;;;9.23;8.43;;;28.10;99.90;;;;;;5095333;28;20478;-66
2022/06/30 05:21:03;;;;;;;11.10;8.60;;;28.50;99.90;;;;;;5096422;28;20421;-67
2022/06/30 05:23:29;;;;;;;10.35;8.30;;;28.70;99.90;;;;;;5096484;28;20024;-67
2022/06/30 05:28:40;;;;;;;9.52;8.52;;;30.10;99.90;;;;;;5096140;28;20032;-66
2022/06/30 05:31:06;;;;;;;12.07;9.00;;;30.50;99.30;;;;;;5096313;28;20417;-66
2022/06/30 05:33:31;;;;;;;8.88;8.10;;;30.20;98.90;;;;;;5095032;28;20051;-66
2022/06/30 05:35:58;;;;;;;11.38;7.97;;;30.00;99.80;;;;;;5096176;28;20016;-67
2022/06/30 05:38:23;;;;;;;10.40;8.68;;;30.30;98.90;;;;;;5096067;28;20031;-66
2022/06/30 05:40:49;;;;;;;9.13;7.78;;;30.70;98.30;;;;;;5096348;28;20024;-67
2022/06/30 05:43:16;;;;;;;10.98;8.30;;;31.10;97.40;;;;;;5096029;28;20045;-67
2022/06/30 05:45:42;;;;;;;7.88;7.03;;;30.50;97.10;;;;;;5094633;28;20036;-67
2022/06/30 05:48:08;;;;;;;11.35;8.80;;;30.70;98.20;;;;;;5095016;28;20028;-67
2022/06/30 05:50:34;;;;;;;12.18;8.20;;;31.20;96.80;;;;;;5095100;28;20016;-67
2022/06/30 05:52:59;;;;;;;15.52;8.00;;;31.40;96.20;;;;;;5095033;28;20081;-66
2022/06/30 05:55:25;;;;;;;8.77;7.68;;;31.10;96.40;;;;;;5095995;28;20021;-67
2022/06/30 05:57:58;;;;;;;8.65;7.45;;;31.80;95.70;;;;;;5094551;28;20432;-67
2022/06/30 06:00:26;;;;;;;8.43;7.68;;;31.90;95.40;;;;;;5094468;28;20024;-67
2022/06/30 06:02:51;;;;;;;9.20;8.13;;;32.10;94.40;;;;;;5095624;28;20107;-66
2022/06/30 06:05:17;;;;;;;11.43;8.05;;;32.30;93.80;;;;;;5095520;28;20121;-66
2022/06/30 06:07:43;;;;;;;8.75;7.80;;;31.70;94.50;;;;;;5095471;28;20086;-67
2022/06/30 06:10:10;;;;;;;11.27;8.10;;;31.70;94.80;;;;;;5095808;28;20035;-66
2022/06/30 06:12:37;;;;;;;9.55;8.63;;;32.60;94.00;;;;;;5095559;28;20016;-66
2022/06/30 06:15:03;;;;;;;10.07;7.82;;;31.70;93.30;;;;;;5091255;28;20025;-66
2022/06/30 06:17:30;;;;;;;13.02;6.85;;;31.60;94.20;;;;;;5090121;28;20035;-67
2022/06/30 06:19:56;;;;;;;13.43;8.40;;;32.40;93.90;;;;;;5095247;28;20052;-67
2022/06/30 06:22:21;;;;;;;9.68;8.10;;;33.00;92.50;;;;;;5095080;28;20081;-67
2022/06/30 06:24:47;;;;;;;11.38;7.53;;;33.40;91.60;;;;;;5093876;28;20028;-67
2022/06/30 06:27:13;;;;;;;10.65;8.45;;;32.60;91.70;;;;;;5088140;28;20085;-67
2022/06/30 06:29:38;;;;;;;10.18;8.88;;;32.60;92.20;;;;;;5094486;28;20031;-67
2022/06/30 06:32:04;;;;;;;13.13;7.80;;;32.30;92.30;;;;;;5094503;28;20043;-67
2022/06/30 06:34:30;;;;;;;9.68;8.48;;;32.80;92.10;;;;;;5095239;28;20020;-67
2022/06/30 06:36:55;;;;;;;8.73;7.88;;;33.20;91.20;;;;;;5095178;28;20066;-68
2022/06/30 06:39:21;;;;;;;10.05;8.30;;;33.90;90.30;;;;;;5092718;28;20020;-67
2022/06/30 06:41:46;;;;;;;8.55;7.85;;;34.40;88.70;;;;;;5092153;28;20028;-68
2022/06/30 06:44:12;;;;;;;12.00;8.55;;;34.20;89.10;;;;;;5091234;28;20039;-67
2022/06/30 06:46:38;;;;;;;9.30;8.32;;;33.80;87.20;;;;;;5092079;28;20023;-68
2022/06/30 06:49:08;;;;;;;8.60;7.50;;;33.70;88.30;;;;;;5093516;28;20013;-67
2022/06/30 06:51:34;;;;;;;9.48;8.55;;;33.90;89.50;;;;;;5093485;28;20537;-68
2022/06/30 06:54:00;;;;;;;8.48;7.40;;;34.20;85.60;;;;;;5092142;28;20020;-67
2022/06/30 06:56:27;;;;;;;8.98;7.63;;;33.80;89.20;;;;;;5094812;28;20031;-67
2022/06/30 06:58:52;;;;;;;9.38;8.38;;;34.70;85.20;;;;;;5094511;28;20051;-67
2022/06/30 07:01:18;;;;;;;9.15;8.13;;;34.80;85.80;;;;;;5093057;28;20032;-67
2022/06/30 07:03:46;;;;;;;9.40;7.65;;;34.50;87.50;;;;;;5092749;28;20020;-67
2022/06/30 07:06:12;;;;;;;9.00;8.27;;;34.80;84.90;;;;;;5093453;28;20051;-68
2022/06/30 07:08:37;;;;;;;9.35;8.35;;;34.50;82.40;;;;;;5094629;28;20102;-67
2022/06/30 07:11:03;;;;;;;9.77;9.00;;;33.40;84.60;;;;;;5094254;28;20074;-67
2022/06/30 07:13:30;;;;;;;8.93;8.13;;;33.10;87.80;;;;;;5094545;28;20035;-67
2022/06/30 07:15:56;;;;;;;9.73;8.68;;;33.60;85.10;;;;;;5093036;28;20027;-68
2022/06/30 07:18:22;;;;;;;9.52;8.60;;;34.30;84.50;;;;;;5094443;28;20386;-68
2022/06/30 07:20:48;;;;;;;9.35;8.40;;;34.20;85.50;;;;;;5094158;28;20021;-67
2022/06/30 07:23:14;;;;;;;10.07;8.63;;;34.10;84.80;;;;;;5094062;28;20019;-67
2022/06/30 07:25:40;;;;;;;9.65;8.82;;;33.60;84.70;;;;;;5094057;28;20475;-67
2022/06/30 07:28:06;;;;;;;9.52;8.65;;;33.30;85.00;;;;;;5072815;28;20020;-67
2022/06/30 07:30:31;;;;;;;10.25;9.15;;;32.50;87.00;;;;;;5072339;28;20028;-67
2022/06/30 07:32:57;;;;;;;10.15;9.32;;;32.30;88.90;;;;;;5073624;28;20471;-67
2022/06/30 07:35:23;;;;;;;10.75;9.75;;;32.70;87.20;;;;;;5082994;28;20110;-67
2022/06/30 07:37:48;;;;;;;11.65;9.60;;;32.70;88.40;;;;;;5092502;28;20501;-66
2022/06/30 07:40:14;;;;;;;10.55;9.65;;;33.50;86.30;;;;;;5093778;28;20027;-67
2022/06/30 07:42:40;;;;;;;10.23;9.20;;;34.00;83.90;;;;;;5093958;28;20032;-67
2022/06/30 07:45:07;;;;;;;10.70;9.80;;;32.90;85.00;;;;;;5093376;28;20498;-67
2022/06/30 07:47:33;;;;;;;11.15;10.20;;;32.00;88.40;;;;;;5093323;28;20030;-67
2022/06/30 07:49:59;;;;;;;10.73;9.73;;;31.70;90.20;;;;;;5093025;28;20107;-67
2022/06/30 07:52:30;;;;;;;11.10;9.95;;;33.00;90.10;;;;;;5093870;28;20469;-66
2022/06/30 07:54:58;;;;;;;11.30;10.02;;;32.70;85.60;;;;;;5075722;28;20107;-69
2022/06/30 07:57:25;;;;;;;10.70;9.38;;;32.10;88.90;;;;;;5091941;28;20024;-66
2022/06/30 07:59:50;;;;;;;10.80;9.70;;;33.10;87.70;;;;;;5090231;28;20428;-66
2022/06/30 08:02:16;;;;;;;10.25;9.30;;;34.00;84.10;;;;;;5092226;28;20024;-68
2022/06/30 08:04:41;;;;;;;10.18;9.13;;;33.80;82.30;;;;;;5089203;28;20516;-67
2022/06/30 08:07:07;;;;;;;9.52;8.38;;;35.00;80.20;;;;;;5091859;28;20089;-68
2022/06/30 08:09:33;;;;;;;9.40;8.40;;;35.50;78.50;;;;;;5091981;28;20493;-66
2022/06/30 08:11:59;;;;;;;9.73;8.85;;;36.10;77.00;;;;;;5091769;28;20024;-67
2022/06/30 08:14:25;;;;;;;11.02;9.48;;;35.20;78.50;;;;;;5090730;28;20017;-66
2022/06/30 08:16:51;;;;;;;11.73;10.10;;;33.50;81.10;;;;;;5092287;28;20417;-66
2022/06/30 08:19:19;;;;;;;13.10;9.45;;;33.20;84.10;;;;;;5092572;28;20039;-66
2022/06/30 08:21:45;;;;;;;10.60;9.55;;;33.30;82.90;;;;;;5092243;28;20035;-66
2022/06/30 08:24:11;;;;;;;12.63;10.20;;;32.60;82.80;;;;;;5092132;28;20035;-66
2022/06/30 08:26:37;;;;;;;10.50;8.75;;;32.20;85.30;;;;;;5092110;28;20024;-66
2022/06/30 08:29:03;;;;;;;8.50;7.80;;;32.10;84.20;;;;;;5092195;28;20478;-66
2022/06/30 08:31:29;;;;;;;11.73;7.78;;;33.70;79.50;;;;;;5092237;28;20023;-67
2022/06/30 08:33:55;;;;;;;10.27;7.50;;;34.40;78.20;;;;;;5091171;28;20500;-66
2022/06/30 08:36:22;;;;;;;10.05;7.75;;;35.50;78.00;;;;;;5090071;28;20486;-67
2022/06/30 08:38:47;;;;;;;11.85;7.78;;;35.40;74.90;;;;;;5089539;28;20107;-67
2022/06/30 08:44:00;;;;;;;10.32;7.72;;;35.20;74.50;;;;;;5089590;28;20074;-67
2022/06/30 08:46:27;;;;;;;9.55;7.45;;;35.10;74.70;;;;;;5091509;28;20028;-67
2022/06/30 08:48:54;;;;;;;8.30;7.50;;;34.80;74.20;;;;;;5091571;28;20016;-67
2022/06/30 08:51:20;;;;;;;9.13;7.05;;;33.40;75.60;;;;;;5090587;28;20364;-67
2022/06/30 08:53:53;;;;;;;11.52;7.70;;;34.10;75.00;;;;;;5091513;28;20535;-67
2022/06/30 08:56:20;;;;;;;8.57;7.78;;;34.40;75.30;;;;;;5092234;28;20032;-67
2022/06/30 08:58:47;;;;;;;8.32;6.43;;;34.90;72.50;;;;;;5091041;28;20032;-67
2022/06/30 09:01:13;;;;;;;6.70;6.10;;;34.80;69.90;;;;;;5092160;28;20115;-66
2022/06/30 09:03:39;;;;;;;8.65;6.10;;;35.40;70.30;;;;;;5091241;28;20024;-67
2022/06/30 09:06:06;;;;;;;5.90;5.40;;;35.10;68.60;;;;;;5073077;28;20045;-67
2022/06/30 09:08:32;;;;;;;11.80;6.10;;;35.20;68.10;;;;;;5089709;28;20031;-66
2022/06/30 09:10:57;;;;;;;8.38;5.68;;;34.60;70.00;;;;;;5090207;28;20016;-66
2022/06/30 09:13:40;;;;;;;5.78;5.28;;;34.60;70.60;;;;;;5091259;28;20069;-67
2022/06/30 09:16:06;;;;;;;6.57;5.50;;;35.10;67.90;;;;;;5090825;28;20077;-66
2022/06/30 09:18:32;;;;;;;8.07;5.10;;;35.50;68.40;;;;;;5090902;28;20385;-66
2022/06/30 09:20:59;;;;;;;9.45;5.60;;;35.50;66.30;;;;;;5089305;28;20107;-66
2022/06/30 09:23:31;;;;;;;9.05;5.28;;;35.70;64.20;;;;;;5091722;28;20149;-65
2022/06/30 09:26:00;;;;;;;6.07;5.57;;;34.60;65.50;;;;;;5093070;28;20023;-66
2022/06/30 09:28:50;;;;;;;5.63;5.13;;;34.30;67.60;;;;;;5095497;28;20024;-66
2022/06/30 09:31:32;;;;;;;9.15;6.15;;;33.00;70.90;;;;;;5095146;28;20474;-66
2022/06/30 09:34:18;;;;;;;6.18;5.63;;;33.10;70.60;;;;;;5095374;28;20029;-66
2022/06/30 09:36:45;;;;;;;5.75;5.22;;;32.80;69.10;;;;;;5095083;28;20028;-66
2022/06/30 09:39:13;;;;;;;4.40;4.00;;;33.20;67.00;;;;;;5095356;28;20024;-66
2022/06/30 09:41:41;;;;;;;8.20;4.18;;;33.60;63.90;;;;;;5093874;28;20093;-66
2022/06/30 09:44:18;;;;;;;7.40;4.25;;;34.50;64.60;;;;;;5095103;28;20044;-66
2022/06/30 09:49:40;;;;;;;7.05;4.90;;;35.70;60.60;;;;;;5130568;27;20382;-67
2022/06/30 09:52:24;;;;;;;5.80;4.10;;;34.70;64.00;;;;;;5130749;28;20449;-67
2022/06/30 09:55:08;;;;;;;4.70;4.07;;;34.80;62.20;;;;;;5129248;28;20118;-67
2022/06/30 09:57:49;;;;;;;4.90;3.70;;;33.90;61.10;;;;;;5130628;27;20106;-68
2022/06/30 10:00:17;;;;;;;5.28;4.25;;;34.00;59.90;;;;;;5130139;28;20050;-67
2022/06/30 10:02:46;;;;;;;4.43;4.03;;;33.90;62.20;;;;;;5130457;28;20035;-67
2022/06/30 10:05:13;;;;;;;4.50;3.72;;;33.50;62.80;;;;;;5130434;28;20084;-66
2022/06/30 10:07:39;;;;;;;6.20;4.80;;;32.80;66.30;;;;;;5130310;28;20546;-67
2022/06/30 10:10:09;;;;;;;7.82;5.00;;;32.40;68.00;;;;;;5130121;28;20045;-67
2022/06/30 10:12:35;;;;;;;7.45;4.47;;;32.60;67.20;;;;;;5125079;28;20072;-67
2022/06/30 10:15:01;;;;;;;6.32;4.25;;;33.90;65.80;;;;;;5121754;28;20096;-67
2022/06/30 10:17:30;;;;;;;5.25;4.00;;;34.40;62.30;;;;;;5129768;28;20046;-67
2022/06/30 10:19:57;;;;;;;5.28;4.05;;;34.80;63.00;;;;;;5131201;28;20419;-66
2022/06/30 10:22:25;;;;;;;5.43;4.20;;;34.60;60.80;;;;;;5126349;28;20102;-66
2022/06/30 10:24:52;;;;;;;7.13;4.15;;;33.70;62.20;;;;;;5130908;28;20448;-67
2022/06/30 10:27:19;;;;;;;5.35;3.97;;;33.80;66.50;;;;;;5131002;28;20068;-67
2022/06/30 10:29:51;;;;;;;5.15;3.97;;;34.80;62.60;;;;;;5130709;28;20018;-67
2022/06/30 10:32:34;;;;;;;4.93;4.40;;;35.10;61.30;;;;;;5130878;28;20439;-67
2022/06/30 10:37:59;;;;;;;5.82;4.25;;;33.00;63.50;;;;;;5111044;27;20433;-67
2022/06/30 10:40:55;;;;;;;5.82;3.88;;;32.20;65.50;;;;;;5110021;28;20432;-67
2022/06/30 10:43:21;;;;;;;5.75;4.30;;;31.20;68.20;;;;;;5109544;28;20110;-67
2022/06/30 10:46:07;;;;;;;5.18;4.15;;;30.90;69.90;;;;;;5113471;28;20031;-67
2022/06/30 10:48:54;;;;;;;6.35;4.70;;;31.00;70.10;;;;;;5119462;28;20027;-69
2022/06/30 10:51:21;;;;;;;6.80;4.38;;;30.90;68.90;;;;;;5112301;28;20069;-67
2022/06/30 10:53:50;;;;;;;7.55;4.30;;;31.00;69.80;;;;;;5116097;27;20438;-67
2022/06/30 10:56:16;;;;;;;5.47;4.72;;;31.90;66.40;;;;;;5119110;28;20397;-68
2022/06/30 10:59:17;;;;;;;5.72;4.28;;;31.70;66.90;;;;;;5112909;28;20111;-67
2022/06/30 11:05:24;;;;;;;8.85;4.80;;;30.90;69.20;;;;;;5089370;28;20880;-67
2022/06/30 11:07:50;;;;;;;5.88;4.43;;;30.70;68.80;;;;;;5072680;28;20044;-67
2022/06/30 11:10:20;;;;;;;7.97;4.60;;;30.90;69.90;;;;;;5070882;28;20036;-67
2022/06/30 11:12:52;;;;;;;7.55;4.40;;;31.30;69.60;;;;;;5068057;28;20132;-67
2022/06/30 11:15:17;;;;;;;7.68;4.75;;;31.90;68.50;;;;;;5064765;28;20116;-65
2022/06/30 11:17:43;;;;;;;4.93;4.40;;;31.40;65.50;;;;;;5066844;28;20108;-67
2022/06/30 11:20:12;;;;;;;6.20;4.38;;;31.80;66.20;;;;;;5061899;28;20045;-65
2022/06/30 11:22:38;;;;;;;6.22;4.45;;;32.40;67.50;;;;;;5064041;28;20491;-65
2022/06/30 11:25:07;;;;;;;5.95;4.40;;;32.90;64.40;;;;;;5068955;28;20100;-66
2022/06/30 11:27:33;;;;;;;6.30;4.35;;;32.90;63.50;;;;;;5068939;28;20382;-65
2022/06/30 11:30:02;;;;;;;5.80;3.88;;;33.00;65.10;;;;;;5065424;28;20017;-65
2022/06/30 11:32:28;;;;;;;4.95;4.18;;;33.20;63.40;;;;;;5062924;28;20549;-65
2022/06/30 11:34:55;;;;;;;3.97;3.67;;;33.30;62.30;;;;;;5068732;28;20025;-65
2022/06/30 11:37:22;;;;;;;7.10;4.20;;;33.30;63.60;;;;;;5070071;28;20048;-66
2022/06/30 11:39:55;;;;;;;5.13;3.92;;;32.70;64.10;;;;;;5069970;28;20577;-65
2022/06/30 11:42:20;;;;;;;8.18;4.13;;;31.90;63.50;;;;;;5069940;28;20135;-65
2022/06/30 11:44:46;;;;;;;5.68;4.40;;;31.60;65.20;;;;;;5069569;28;20491;-65
2022/06/30 11:47:17;;;;;;;6.47;4.40;;;31.40;64.00;;;;;;5069574;28;20032;-66
2022/06/30 11:49:52;;;;;;;7.68;4.13;;;31.50;63.00;;;;;;5068176;28;20028;-65
2022/06/30 11:52:38;;;;;;;6.18;3.85;;;31.90;65.00;;;;;;5069739;28;20021;-65
2022/06/30 11:55:09;;;;;;;6.10;4.03;;;32.10;65.20;;;;;;5069498;28;20110;-65
2022/06/30 11:57:38;;;;;;;6.65;4.43;;;32.20;63.60;;;;;;5069457;28;20430;-65
2022/06/30 12:00:08;;;;;;;6.22;4.28;;;31.80;65.50;;;;;;5069382;28;20562;-65
2022/06/30 12:02:36;;;;;;;4.28;3.88;;;31.70;64.50;;;;;;5067772;28;20025;-66
2022/06/30 12:05:03;;;;;;;7.72;4.35;;;31.50;63.70;;;;;;5069176;28;20020;-65
2022/06/30 12:07:31;;;;;;;6.63;4.38;;;31.10;65.60;;;;;;5069447;28;20035;-65
2022/06/30 12:09:57;;;;;;;5.75;4.30;;;31.50;65.80;;;;;;5069091;28;20028;-65
2022/06/30 12:12:27;;;;;;;4.63;4.20;;;31.90;64.20;;;;;;5065607;28;20071;-66
2022/06/30 12:14:57;;;;;;;4.60;4.07;;;32.10;65.10;;;;;;5060027;28;20124;-65
2022/06/30 12:17:23;;;;;;;7.05;4.20;;;32.10;64.10;;;;;;5055901;28;20051;-65
2022/06/30 12:19:51;;;;;;;5.50;4.25;;;31.80;62.40;;;;;;5054518;28;20395;-65
2022/06/30 12:22:19;;;;;;;6.80;4.63;;;31.70;64.70;;;;;;5055766;28;20391;-66
2022/06/30 12:24:47;;;;;;;5.78;4.30;;;31.50;65.70;;;;;;5054388;28;20025;-65
2022/06/30 12:27:37;;;;;;;5.10;4.50;;;31.30;65.70;;;;;;5055873;28;20028;-64
2022/06/30 12:30:10;;;;;;;5.32;4.78;;;30.90;66.00;;;;;;5053346;28;20035;-65
2022/06/30 12:32:36;;;;;;;5.38;4.70;;;30.70;66.60;;;;;;5038022;28;20061;-65
2022/06/30 12:35:06;;;;;;;5.55;4.93;;;30.70;66.80;;;;;;5034136;28;20053;-65
2022/06/30 12:37:36;;;;;;;6.78;4.63;;;30.70;68.10;;;;;;5049968;28;20478;-65
2022/06/30 12:40:08;;;;;;;6.70;5.05;;;30.50;67.40;;;;;;5055394;28;20017;-65
2022/06/30 12:42:54;;;;;;;5.97;4.82;;;30.70;68.60;;;;;;5055268;28;20031;-65
2022/06/30 12:48:43;;;;;;;5.43;4.90;;;30.90;66.60;;;;;;5125016;27;20403;-66
2022/06/30 12:51:11;;;;;;;6.47;4.90;;;31.30;67.10;;;;;;5112813;28;20040;-66
2022/06/30 12:53:38;;;;;;;6.13;4.88;;;31.00;66.70;;;;;;5111169;28;20464;-66
2022/06/30 12:56:12;;;;;;;8.45;5.20;;;30.90;68.00;;;;;;5114105;28;20038;-66
2022/06/30 12:58:43;;;;;;;6.10;4.78;;;31.50;68.40;;;;;;5110175;28;20509;-66
2022/06/30 13:01:14;;;;;;;5.50;4.63;;;31.90;66.40;;;;;;5111051;28;20081;-66
2022/06/30 13:03:50;;;;;;;6.20;4.88;;;31.70;66.50;;;;;;5111037;28;20490;-67
2022/06/30 13:06:16;;;;;;;5.95;4.93;;;31.60;67.30;;;;;;5110853;28;20055;-66
2022/06/30 13:08:46;;;;;;;5.50;5.00;;;31.70;67.10;;;;;;5092293;28;20471;-66
2022/06/30 13:11:14;;;;;;;7.53;4.90;;;32.00;65.30;;;;;;5089181;28;20108;-65
2022/06/30 13:13:40;;;;;;;6.68;5.20;;;32.00;65.00;;;;;;5089508;28;20359;-65
2022/06/30 13:16:05;;;;;;;6.28;5.15;;;32.20;63.90;;;;;;5089070;28;20027;-65
2022/06/30 13:18:31;;;;;;;10.57;4.80;;;32.10;63.70;;;;;;5097349;28;20114;-65
2022/06/30 13:20:56;;;;;;;6.05;5.07;;;31.90;62.30;;;;;;5100185;28;20036;-65
2022/06/30 13:23:22;;;;;;;6.82;5.28;;;31.40;62.50;;;;;;5088169;28;20028;-65
2022/06/30 13:25:47;;;;;;;5.72;4.68;;;31.10;64.10;;;;;;5089153;28;20515;-65